• Join FlightAware (Why Join?)
  • Login
  • US Flag 
04:53AM EST


 

Airport Tracker/Info


-or-


 

Live Flight TrackerFlight Track Log ✈ UAL3744 ✈ 13-Apr-2013 ✈ KIAD - KAUS

Flight Track Log - Related Links

Times and Time Zones

All times are in EDT time to prevent confusion due to time zone crossing. See the UAL3744 flight status page for this flight to view local times or setup timezone preferences in your user account.

Time Position Orientation Groundspeed Altitude Reporting Facility
EDT Latitude Longitude Course Direction KTS MPH feet Rate Location/Type
06:28PM 38.9333 -77.5500 252° West 207 238 2,800  Level Potomac TRACON
06:29PM 38.9167 -77.6167 252° West 219 252 5,600 2,520 Climbing Potomac TRACON
06:29PM 38.9125 -77.6458 260° West 217 250 6,300 1,920 Climbing Washington Center
06:30PM 38.8944 -77.7281 254° West 214 246 8,300 2,280 Climbing Washington Center
06:31PM 38.8889 -77.8078 265° West 244 281 10,900 2,760 Climbing Washington Center
06:32PM 38.8808 -77.9011 264° West 244 281 13,900 2,400 Climbing Washington Center
06:33PM 38.8728 -77.9861 263° West 244 281 15,800 1,920 Climbing Washington Center
06:34PM 38.8650 -78.0739 264° West 249 287 17,800 2,040 Climbing Washington Center
06:35PM 38.8567 -78.1614 263° West 254 292 19,900 1,800 Climbing Washington Center
06:36PM 38.8528 -78.2519 267° West 254 292 21,500 1,560 Climbing Washington Center
06:37PM 38.8528 -78.3400 270° West 254 292 23,100 1,500 Climbing Washington Center
06:38PM 38.8506 -78.4331 268° West 254 292 24,600 1,380 Climbing Washington Center
06:39PM 38.8506 -78.5292 270° West 259 298 25,900 1,200 Climbing Washington Center
06:40PM 38.8500 -78.6278 270° West 265 305 27,100 1,200 Climbing Washington Center
06:41PM 38.8475 -78.7261 268° West 276 318 28,300 1,080 Climbing Washington Center
06:42PM 38.8469 -78.8275 270° West 276 318 29,300 900 Climbing Washington Center
06:43PM 38.8444 -78.9181 268° West 281 323 30,100 840 Climbing Washington Center
06:44PM 38.8433 -79.0325 269° West 287 330 31,000 720 Climbing Washington Center
06:45PM 38.8403 -79.1392 268° West 292 336 31,600 660 Climbing Washington Center
06:46PM 38.8286 -79.2450 262° West 303 349 32,400 660 Climbing Washington Center
06:47PM 38.8108 -79.3533 258° West 309 356 33,000 540 Climbing Washington Center
06:48PM 38.7908 -79.4589 256° West 314 361 33,600 480 Climbing Washington Center
06:49PM 38.7769 -79.5622 260° West 314 361 34,000 180 Climbing Washington Center
06:50PM 38.7564 -79.6756 257° West 320 368 34,000  Level Washington Center
06:51PM 38.7361 -79.7836 257° West 320 368 34,000  Level Washington Center
06:52PM 38.7153 -79.8994 257° West 315 362 34,000  Level Washington Center
06:53PM 38.6947 -80.0047 256° West 315 362 34,000  Level Washington Center
06:55PM 38.6550 -80.2003 255° West 312 359 34,000  Level Indianapolis Center
06:56PM 38.6364 -80.3089 258° West 312 359 34,000  Level Indianapolis Center
06:57PM 38.6153 -80.4133 256° West 305 351 34,000  Level Indianapolis Center
06:58PM 38.5961 -80.5153 257° West 296 341 34,000  Level Indianapolis Center
06:59PM 38.5764 -80.6233 257° West 309 356 34,000  Level Indianapolis Center
07:00PM 38.5544 -80.7358 256° West 323 372 34,000  Level Indianapolis Center
07:01PM 38.5317 -80.8522 256° West 335 386 34,000  Level Indianapolis Center
07:02PM 38.5033 -80.9981 256° West 349 402 34,000  Level Indianapolis Center
07:03PM 38.4794 -81.1203 256° West 353 406 34,000  Level Indianapolis Center
07:04PM 38.4561 -81.2358 256° West 337 388 34,000  Level Indianapolis Center
07:05PM 38.4356 -81.3447 256° West 318 366 34,000  Level Indianapolis Center
07:06PM 38.4139 -81.4494 255° West 306 352 34,000  Level Indianapolis Center
07:07PM 38.3922 -81.5583 256° West 312 359 34,000  Level Indianapolis Center
07:08PM 38.3703 -81.6683 256° West 317 365 34,000  Level Indianapolis Center
07:09PM 38.3475 -81.7775 255° West 318 366 34,000  Level Indianapolis Center
07:10PM 38.3186 -81.8817 251° West 312 359 34,000  Level Indianapolis Center
07:11PM 38.2894 -81.9817 250° West 303 349 34,000  Level Indianapolis Center
07:12PM 38.2619 -82.0819 251° West 301 346 34,000  Level Indianapolis Center
07:13PM 38.2347 -82.1789 250° West 294 338 34,000  Level Indianapolis Center
07:14PM 38.2067 -82.2772 250° West 295 339 34,000  Level Indianapolis Center
07:15PM 38.1775 -82.3797 250° West 308 354 34,000  Level Indianapolis Center
07:17PM 38.1431 -82.4997 250° West 312 359 34,000  Level Indianapolis Center
07:18PM 38.1147 -82.6036 251° West 312 359 34,000  Level Indianapolis Center
07:19PM 38.0847 -82.7022 249° West 304 350 34,000  Level Indianapolis Center
07:20PM 38.0561 -82.8025 250° West 303 349 34,000  Level Indianapolis Center
07:21PM 38.0272 -82.9042 250° West 305 351 34,000  Level Indianapolis Center
07:22PM 37.9967 -83.0050 249° West 305 351 34,000  Level Indianapolis Center
07:23PM 37.9678 -83.1056 250° West 305 351 34,000  Level Indianapolis Center
07:24PM 37.9392 -83.2067 250° West 305 351 34,000  Level Indianapolis Center
07:25PM 37.9044 -83.3228 249° West 303 349 34,000  Level Indianapolis Center
07:26PM 37.8717 -83.4208 247° West 302 348 34,000  Level Indianapolis Center
07:27PM 37.8364 -83.5167 245° Southwest 301 346 34,000  Level Indianapolis Center
07:28PM 37.8017 -83.6144 246° West 304 350 34,000  Level Indianapolis Center
07:29PM 37.7656 -83.7103 245° Southwest 304 350 34,000  Level Indianapolis Center
07:30PM 37.7297 -83.8086 245° Southwest 306 352 34,000  Level Indianapolis Center
07:31PM 37.6936 -83.9081 245° Southwest 309 356 34,000  Level Indianapolis Center
07:32PM 37.6533 -84.0164 245° Southwest 309 356 34,000  Level Indianapolis Center
07:33PM 37.6203 -84.1058 245° Southwest 313 360 34,000  Level Indianapolis Center
07:34PM 37.5836 -84.2056 245° Southwest 314 361 34,000  Level Indianapolis Center
07:35PM 37.5481 -84.3058 246° West 313 360 34,000  Level Indianapolis Center
07:36PM 37.5042 -84.4222 245° Southwest 316 364 34,000  Level Indianapolis Center
07:37PM 37.4672 -84.5225 245° Southwest 316 364 34,000  Level Indianapolis Center
07:38PM 37.4292 -84.6253 245° Southwest 321 369 34,000  Level Indianapolis Center
07:39PM 37.3900 -84.7250 244° Southwest 319 367 34,000  Level Indianapolis Center
07:40PM 37.3522 -84.8275 245° Southwest 322 371 34,000  Level Indianapolis Center
07:41PM 37.3139 -84.9283 244° Southwest 321 369 34,000  Level Indianapolis Center
07:42PM 37.2764 -85.0292 245° Southwest 319 367 34,000  Level Indianapolis Center
07:43PM 37.2367 -85.1311 244° Southwest 323 372 34,000  Level Indianapolis Center
07:44PM 37.1989 -85.2314 245° Southwest 319 367 34,000  Level Indianapolis Center
07:45PM 37.1606 -85.3294 244° Southwest 313 360 34,000  Level Indianapolis Center
07:46PM 37.1225 -85.4286 244° Southwest 314 361 34,000  Level Indianapolis Center
07:47PM 37.0839 -85.5283 244° Southwest 310 357 34,000  Level Indianapolis Center
07:48PM 37.0472 -85.6258 245° Southwest 310 357 34,000  Level Indianapolis Center
07:49PM 37.0136 -85.7142 245° Southwest 312 359 34,000  Level Memphis Center
07:50PM 36.9736 -85.8128 243° Southwest 312 359 34,000  Level Memphis Center
07:51PM 36.9356 -85.9136 245° Southwest 312 359 34,000  Level Memphis Center
07:52PM 36.8956 -86.0169 244° Southwest 328 377 34,100 540 Climbing Memphis Center
07:53PM 36.8553 -86.1175 243° Southwest 328 377 35,100 780 Climbing Memphis Center
07:54PM 36.8169 -86.2181 245° Southwest 328 377 35,700 420 Climbing Memphis Center
07:55PM 36.7744 -86.3214 243° Southwest 328 377 36,000 120 Climbing Memphis Center
07:56PM 36.7358 -86.4192 244° Southwest 328 377 36,000  Level Memphis Center
07:57PM 36.6953 -86.5219 244° Southwest 328 377 36,000  Level Memphis Center
07:58PM 36.6586 -86.6167 244° Southwest 328 377 36,000  Level Memphis Center
07:59PM 36.6200 -86.7142 244° Southwest 328 377 36,000  Level Memphis Center
08:00PM 36.5811 -86.8117 244° Southwest 328 377 36,000  Level Memphis Center
08:01PM 36.5461 -86.9011 244° Southwest 323 372 36,000  Level Memphis Center
08:02PM 36.5069 -86.9983 243° Southwest 331 381 36,000  Level Memphis Center
08:03PM 36.4661 -87.1006 244° Southwest 326 375 36,000  Level Memphis Center
08:04PM 36.4247 -87.1975 242° Southwest 326 375 36,000  Level Memphis Center
08:05PM 36.3833 -87.2972 243° Southwest 331 381 36,000  Level Memphis Center
08:06PM 36.3422 -87.3992 243° Southwest 331 381 36,000  Level Memphis Center
08:07PM 36.2986 -87.5011 242° Southwest 331 381 36,000  Level Memphis Center
08:08PM 36.2592 -87.6003 244° Southwest 331 381 36,000  Level Memphis Center
08:09PM 36.2156 -87.7047 243° Southwest 331 381 36,000  Level Memphis Center
08:10PM 36.1761 -87.8064 244° Southwest 331 381 36,000  Level Memphis Center
08:11PM 36.1342 -87.9053 242° Southwest 331 381 36,000  Level Memphis Center
08:12PM 36.0906 -88.0144 244° Southwest 325 374 36,000  Level Memphis Center
08:13PM 36.0486 -88.1108 242° Southwest 325 374 36,000  Level Memphis Center
08:14PM 36.0103 -88.1939 240° Southwest 325 374 36,000  Level Memphis Center
08:15PM 35.9703 -88.2897 243° Southwest 320 368 36,000  Level Memphis Center
08:16PM 35.9303 -88.3831 242° Southwest 320 368 36,000  Level Memphis Center
08:17PM 35.8900 -88.4789 243° Southwest 320 368 36,000  Level Memphis Center
08:18PM 35.8497 -88.5744 243° Southwest 320 368 36,000  Level Memphis Center
08:19PM 35.8072 -88.6703 241° Southwest 320 368 36,000  Level Memphis Center
08:20PM 35.7689 -88.7683 244° Southwest 320 368 36,000  Level Memphis Center
08:21PM 35.7264 -88.8636 241° Southwest 320 368 36,000  Level Memphis Center
08:22PM 35.6836 -88.9614 242° Southwest 320 368 36,000  Level Memphis Center
08:23PM 35.6389 -89.0694 243° Southwest 320 368 36,000  Level Memphis Center
08:24PM 35.5981 -89.1672 243° Southwest 328 377 36,000  Level Memphis Center
08:25PM 35.5575 -89.2672 244° Southwest 328 377 36,000  Level Memphis Center
08:26PM 35.5144 -89.3647 242° Southwest 328 377 36,000  Level Memphis Center
08:27PM 35.4692 -89.4647 241° Southwest 328 377 36,000  Level Memphis Center
08:28PM 35.4283 -89.5619 243° Southwest 323 372 36,000  Level Memphis Center
08:29PM 35.3872 -89.6592 243° Southwest 329 379 36,000  Level Memphis Center
08:30PM 35.3478 -89.7436 240° Southwest 324 373 36,000  Level Memphis Center
08:31PM 35.3067 -89.8381 242° Southwest 324 373 36,000  Level Memphis Center
08:32PM 35.2653 -89.9325 242° Southwest 324 373 36,000  Level Memphis Center
08:33PM 35.2258 -90.0242 242° Southwest 318 366 36,000  Level Memphis Center
08:34PM 35.1844 -90.1183 242° Southwest 313 360 36,000  Level Memphis Center
08:35PM 35.1428 -90.2097 241° Southwest 313 360 36,000  Level Memphis Center
08:36PM 35.1033 -90.3011 242° Southwest 313 360 36,000  Level Memphis Center
08:37PM 35.0636 -90.3925 242° Southwest 313 360 36,000  Level Memphis Center
08:38PM 35.0219 -90.4814 240° Southwest 313 360 36,000  Level Memphis Center
08:39PM 34.9800 -90.5750 241° Southwest 313 360 36,000  Level Memphis Center
08:40PM 34.9319 -90.6789 241° Southwest 313 360 36,000  Level Memphis Center
08:41PM 34.8878 -90.7747 241° Southwest 318 366 36,000  Level Memphis Center
08:42PM 34.8456 -90.8733 242° Southwest 330 380 36,000  Level Memphis Center
08:43PM 34.7994 -90.9692 240° Southwest 330 380 36,000  Level Memphis Center
08:44PM 34.7550 -91.0650 241° Southwest 324 373 36,000  Level Memphis Center
08:45PM 34.7128 -91.1556 240° Southwest 324 373 36,000  Level Memphis Center
08:46PM 34.6642 -91.2458 237° Southwest 324 373 36,000  Level Memphis Center
08:47PM 34.6175 -91.3339 237° Southwest 318 366 36,000  Level Memphis Center
08:48PM 34.5711 -91.4189 236° Southwest 313 360 36,000  Level Memphis Center
08:49PM 34.5244 -91.5067 237° Southwest 308 354 36,000  Level Memphis Center
08:50PM 34.4861 -91.5817 238° Southwest 303 349 36,000  Level Memphis Center
08:51PM 34.4392 -91.6692 237° Southwest 303 349 36,000  Level Memphis Center
08:52PM 34.3861 -91.7614 235° Southwest 296 341 36,000  Level Memphis Center
08:53PM 34.3392 -91.8489 237° Southwest 302 348 36,000  Level Memphis Center
08:54PM 34.2900 -91.9358 236° Southwest 312 359 36,000  Level Memphis Center
08:55PM 34.2389 -92.0306 237° Southwest 323 372 36,000  Level Memphis Center
08:56PM 34.1894 -92.1200 236° Southwest 328 377 36,000  Level Memphis Center
08:57PM 34.1381 -92.2142 237° Southwest 328 377 36,000  Level Memphis Center
08:58PM 34.0886 -92.3058 237° Southwest 328 377 36,000  Level Memphis Center
08:59PM 34.0414 -92.3978 238° Southwest 328 377 36,000  Level Memphis Center
09:00PM 33.9939 -92.4892 238° Southwest 328 377 36,000  Level Memphis Center
09:01PM 33.9422 -92.5781 235° Southwest 328 377 36,000  Level Memphis Center
09:03PM 33.8331 -92.7728 236° Southwest 326 375 36,000  Level Fort Worth Center
09:04PM 33.7842 -92.8653 238° Southwest 326 375 36,000  Level Fort Worth Center
09:05PM 33.7331 -92.9503 234° Southwest 326 375 36,000  Level Fort Worth Center
09:06PM 33.6842 -93.0403 237° Southwest 326 375 36,000  Level Fort Worth Center
09:07PM 33.6347 -93.1250 235° Southwest 326 375 36,000  Level Fort Worth Center
09:08PM 33.5856 -93.2122 236° Southwest 321 369 36,000  Level Fort Worth Center
09:09PM 33.5342 -93.3019 236° Southwest 321 369 36,000  Level Fort Worth Center
09:10PM 33.4847 -93.3864 235° Southwest 326 375 36,000  Level Fort Worth Center
09:11PM 33.4356 -93.4731 236° Southwest 326 375 36,000  Level Fort Worth Center
09:12PM 33.3858 -93.5600 236° Southwest 321 369 36,000  Level Fort Worth Center
09:13PM 33.3344 -93.6492 235° Southwest 321 369 36,000  Level Fort Worth Center
09:14PM 33.2886 -93.7233 234° Southwest 321 369 36,000  Level Fort Worth Center
09:15PM 33.2369 -93.8122 235° Southwest 321 369 36,000  Level Fort Worth Center
09:16PM 33.1872 -93.9036 237° Southwest 321 369 36,000  Level Fort Worth Center
09:17PM 33.1397 -93.9925 237° Southwest 321 369 36,000  Level Fort Worth Center
09:18PM 33.0878 -94.0786 234° Southwest 321 369 36,000  Level Fort Worth Center
09:19PM 33.0378 -94.1647 235° Southwest 321 369 36,000  Level Fort Worth Center
09:20PM 32.9878 -94.2533 236° Southwest 321 369 36,000  Level Fort Worth Center
09:21PM 32.9378 -94.3392 235° Southwest 321 369 36,000  Level Fort Worth Center
09:22PM 32.8878 -94.4275 236° Southwest 321 369 36,000  Level Fort Worth Center
09:23PM 32.8356 -94.5158 235° Southwest 326 375 36,000  Level Fort Worth Center
09:24PM 32.7833 -94.6014 234° Southwest 326 375 36,000  Level Fort Worth Center
09:25PM 32.7308 -94.6894 235° Southwest 326 375 36,000  Level Fort Worth Center
09:26PM 32.6828 -94.7772 237° Southwest 326 375 36,000  Level Fort Worth Center
09:27PM 32.6281 -94.8678 234° Southwest 331 381 36,000  Level Fort Worth Center
09:28PM 32.5736 -94.9556 234° Southwest 331 381 36,000  Level Fort Worth Center
09:29PM 32.5169 -95.0508 235° Southwest 336 387 36,000  Level Fort Worth Center
09:30PM 32.4744 -95.1331 239° Southwest 336 387 36,000  Level Fort Worth Center
09:31PM 32.4219 -95.2231 235° Southwest 331 381 36,000  Level Fort Worth Center
09:32PM 32.3650 -95.3203 235° Southwest 337 388 36,000  Level Fort Worth Center
09:33PM 32.3103 -95.4100 234° Southwest 344 396 36,000  Level Fort Worth Center
09:34PM 32.2553 -95.4997 234° Southwest 336 387 36,000  Level Fort Worth Center
09:35PM 32.2083 -95.5842 237° Southwest 341 392 36,000  Level Fort Worth Center
09:36PM 32.1492 -95.6761 233° Southwest 334 384 36,000  Level Fort Worth Center
09:37PM 32.0919 -95.7703 234° Southwest 339 390 36,000  Level Fort Worth Center
09:38PM 32.0389 -95.8572 234° Southwest 339 390 36,000  Level Fort Worth Center
09:39PM 31.9836 -95.9486 235° Southwest 345 397 36,000  Level Fort Worth Center
09:40PM 31.9386 -96.0325 238° Southwest 340 391 36,000  Level Fort Worth Center
09:41PM 31.8831 -96.1239 234° Southwest 340 391 36,000  Level Fort Worth Center
09:42PM 31.8278 -96.2103 233° Southwest 340 391 36,000  Level Fort Worth Center
09:43PM 31.7681 -96.3017 232° Southwest 346 398 36,000  Level Fort Worth Center
09:44PM 31.7103 -96.3925 233° Southwest 346 398 36,000 -540 Level Fort Worth Center
09:45PM 31.6525 -96.4958 237° Southwest 351 404 35,000 -1,560 Descending Fort Worth Center
09:46PM 31.5939 -96.5872 233° Southwest 365 420 33,000 -2,040 Descending Houston Center
09:47PM 31.5347 -96.6839 234° Southwest 362 417 31,000 -1,980 Descending Houston Center
09:48PM 31.4736 -96.7819 234° Southwest 368 423 29,000 -1,980 Descending Houston Center
09:49PM 31.4147 -96.8772 234° Southwest 359 413 27,000 -2,040 Descending Houston Center
09:50PM 31.3575 -96.9692 234° Southwest 349 402 25,000 -2,040 Descending Houston Center
09:51PM 31.3033 -97.0558 234° Southwest 331 381 23,000 -1,860 Descending Houston Center
09:52PM 31.2453 -97.1297 227° Southwest 313 360 21,300 -1,860 Descending Houston Center
09:53PM 31.1669 -97.1728 205° Southwest 307 353 19,300 -1,920 Descending Houston Center
09:54PM 31.0917 -97.2131 205° Southwest 298 343 17,400 -1,860 Descending Houston Center
09:55PM 31.0197 -97.2517 205° Southwest 285 328 15,600 -1,740 Descending Houston Center
09:56PM 30.9511 -97.2900 206° Southwest 282 325 13,900 -1,320 Descending Houston Center
09:57PM 30.8767 -97.3344 207° Southwest 254 292 13,000 -480 Descending Houston Center
09:58PM 30.8144 -97.3808 213° Southwest 256 295 13,000  Level Houston Center
09:59PM 30.7481 -97.4294 212° Southwest 277 319 13,000 -600 Level Houston Center
10:00PM 30.6936 -97.4719 214° Southwest 244 281 11,900 -1,380 Descending Houston Center
10:01PM 30.6428 -97.5136 215° Southwest 227 261 10,300 -1,500 Descending Houston Center
10:02PM 30.5953 -97.5550 217° Southwest 216 249 8,900 -1,440 Descending Houston Center
10:03PM 30.5361 -97.5789 199° South 219 252 7,500 -1,500 Descending Houston Center
10:04PM 30.4756 -97.6044 200° South 225 259 5,900 -1,560 Descending Houston Center
10:05PM 30.4181 -97.6275 199° South 220 253 4,400 -1,320 Descending Houston Center
10:06PM 30.3653 -97.6528 202° Southwest 208 239 3,300 -1,020 Descending Houston Center
10:07PM 30.3261 -97.6750 206° Southwest 170 196 2,400 -600 Descending Houston Center
10:08PM 30.2942 -97.6836 193° South 136 157 2,100 -420 Descending Houston Center
10:09PM 30.2606 -97.6819 178° South 123 142 1,600 -600 Descending Houston Center
10:10PM 30.2306 -97.6800 177° South 123 142 1,000 -600 Descending Houston Center
10:12PM 30.1945 -97.6699 190° South  Level Estimated
10:19PM 30.1945 -97.6699 190° South  Level Estimated